sensor_id;sensor_type;location;lat;lon;timestamp;temperature;humidity
48007;DHT22;33771;48.180;11.400;2023-07-31T00:00:26;15.70;99.90
48007;DHT22;33771;48.180;11.400;2023-07-31T00:02:52;15.60;99.90
48007;DHT22;33771;48.180;11.400;2023-07-31T00:05:18;15.60;99.90
48007;DHT22;33771;48.180;11.400;2023-07-31T00:07:43;15.60;99.90
48007;DHT22;33771;48.180;11.400;2023-07-31T00:10:09;15.50;99.90
48007;DHT22;33771;48.180;11.400;2023-07-31T00:12:35;15.50;99.90
48007;DHT22;33771;48.180;11.400;2023-07-31T00:15:00;15.40;99.90
48007;DHT22;33771;48.180;11.400;2023-07-31T00:17:26;15.40;99.90
48007;DHT22;33771;48.180;11.400;2023-07-31T00:19:51;15.40;99.90
48007;DHT22;33771;48.180;11.400;2023-07-31T00:22:17;15.50;99.90
48007;DHT22;33771;48.180;11.400;2023-07-31T00:24:43;15.50;99.90
48007;DHT22;33771;48.180;11.400;2023-07-31T00:27:08;15.50;99.90
48007;DHT22;33771;48.180;11.400;2023-07-31T00:29:34;15.50;99.90
48007;DHT22;33771;48.180;11.400;2023-07-31T00:31:59;15.50;99.90
48007;DHT22;33771;48.180;11.400;2023-07-31T00:34:25;15.50;99.90
48007;DHT22;33771;48.180;11.400;2023-07-31T00:36:50;15.50;99.90
48007;DHT22;33771;48.180;11.400;2023-07-31T00:39:17;15.50;99.90
48007;DHT22;33771;48.180;11.400;2023-07-31T00:41:42;15.50;99.90
48007;DHT22;33771;48.180;11.400;2023-07-31T00:44:08;15.50;99.90
48007;DHT22;33771;48.180;11.400;2023-07-31T00:46:33;15.50;99.90
48007;DHT22;33771;48.180;11.400;2023-07-31T00:48:59;15.40;99.90
48007;DHT22;33771;48.180;11.400;2023-07-31T00:51:25;15.50;99.90
48007;DHT22;33771;48.180;11.400;2023-07-31T00:53:50;15.40;99.90
48007;DHT22;33771;48.180;11.400;2023-07-31T00:56:19;15.50;99.90
48007;DHT22;33771;48.180;11.400;2023-07-31T00:58:45;15.50;99.90
48007;DHT22;33771;48.180;11.400;2023-07-31T01:01:10;15.50;99.90
48007;DHT22;33771;48.180;11.400;2023-07-31T01:03:36;15.50;99.90
48007;DHT22;33771;48.180;11.400;2023-07-31T01:11:28;15.50;99.90
48007;DHT22;33771;48.180;11.400;2023-07-31T01:13:57;15.60;99.90
48007;DHT22;33771;48.180;11.400;2023-07-31T01:16:24;15.60;99.90
48007;DHT22;33771;48.180;11.400;2023-07-31T01:18:49;15.60;99.90
48007;DHT22;33771;48.180;11.400;2023-07-31T01:21:41;15.60;99.90
48007;DHT22;33771;48.180;11.400;2023-07-31T01:24:55;15.60;99.90
48007;DHT22;33771;48.180;11.400;2023-07-31T01:27:28;15.60;99.90
48007;DHT22;33771;48.180;11.400;2023-07-31T01:30:11;15.60;99.90
48007;DHT22;33771;48.180;11.400;2023-07-31T01:32:42;15.70;99.90
48007;DHT22;33771;48.180;11.400;2023-07-31T01:35:09;15.70;99.90
48007;DHT22;33771;48.180;11.400;2023-07-31T01:37:34;15.70;99.90
48007;DHT22;33771;48.180;11.400;2023-07-31T01:40:00;15.70;99.90
48007;DHT22;33771;48.180;11.400;2023-07-31T01:42:25;15.70;99.90
48007;DHT22;33771;48.180;11.400;2023-07-31T01:44:51;15.70;99.90
48007;DHT22;33771;48.180;11.400;2023-07-31T01:47:16;15.70;99.90
48007;DHT22;33771;48.180;11.400;2023-07-31T01:49:42;15.70;99.90
48007;DHT22;33771;48.180;11.400;2023-07-31T01:52:07;15.80;99.90
48007;DHT22;33771;48.180;11.400;2023-07-31T01:54:33;15.80;99.90
48007;DHT22;33771;48.180;11.400;2023-07-31T01:56:59;15.70;99.90
48007;DHT22;33771;48.180;11.400;2023-07-31T01:59:24;15.70;99.90
48007;DHT22;33771;48.180;11.400;2023-07-31T02:01:50;15.80;99.90
48007;DHT22;33771;48.180;11.400;2023-07-31T02:04:15;15.70;99.90
48007;DHT22;33771;48.180;11.400;2023-07-31T02:06:41;15.70;99.90
48007;DHT22;33771;48.180;11.400;2023-07-31T02:09:06;15.70;99.90
48007;DHT22;33771;48.180;11.400;2023-07-31T02:11:32;15.70;99.90
48007;DHT22;33771;48.180;11.400;2023-07-31T02:13:57;15.70;99.90
48007;DHT22;33771;48.180;11.400;2023-07-31T02:16:23;15.60;99.90
48007;DHT22;33771;48.180;11.400;2023-07-31T02:18:48;15.60;99.90
48007;DHT22;33771;48.180;11.400;2023-07-31T02:21:14;15.60;99.90
48007;DHT22;33771;48.180;11.400;2023-07-31T02:23:39;15.60;99.90
48007;DHT22;33771;48.180;11.400;2023-07-31T02:26:05;15.60;99.90
48007;DHT22;33771;48.180;11.400;2023-07-31T02:28:30;15.50;99.90
48007;DHT22;33771;48.180;11.400;2023-07-31T02:30:56;15.50;99.90
48007;DHT22;33771;48.180;11.400;2023-07-31T02:33:21;15.40;99.90
48007;DHT22;33771;48.180;11.400;2023-07-31T02:35:47;15.40;99.90
48007;DHT22;33771;48.180;11.400;2023-07-31T02:38:12;15.40;99.90
48007;DHT22;33771;48.180;11.400;2023-07-31T02:40:39;15.30;99.90
48007;DHT22;33771;48.180;11.400;2023-07-31T02:43:06;15.30;99.90
48007;DHT22;33771;48.180;11.400;2023-07-31T02:45:32;15.30;99.90
48007;DHT22;33771;48.180;11.400;2023-07-31T02:47:58;15.20;99.90
48007;DHT22;33771;48.180;11.400;2023-07-31T02:50:23;15.20;99.90
48007;DHT22;33771;48.180;11.400;2023-07-31T02:52:49;15.10;99.90
48007;DHT22;33771;48.180;11.400;2023-07-31T02:55:14;15.10;99.90
48007;DHT22;33771;48.180;11.400;2023-07-31T02:57:40;15.00;99.90
48007;DHT22;33771;48.180;11.400;2023-07-31T03:00:06;15.00;99.90
48007;DHT22;33771;48.180;11.400;2023-07-31T03:02:32;14.90;99.90
48007;DHT22;33771;48.180;11.400;2023-07-31T03:04:57;14.90;99.90
48007;DHT22;33771;48.180;11.400;2023-07-31T03:07:23;14.90;99.90
48007;DHT22;33771;48.180;11.400;2023-07-31T03:09:48;14.90;99.90
48007;DHT22;33771;48.180;11.400;2023-07-31T03:12:14;14.80;99.90
48007;DHT22;33771;48.180;11.400;2023-07-31T03:14:40;14.70;99.90
48007;DHT22;33771;48.180;11.400;2023-07-31T03:17:06;14.70;99.90
48007;DHT22;33771;48.180;11.400;2023-07-31T03:19:32;14.70;99.90
48007;DHT22;33771;48.180;11.400;2023-07-31T03:21:58;14.70;99.90
48007;DHT22;33771;48.180;11.400;2023-07-31T03:24:23;14.70;99.90
48007;DHT22;33771;48.180;11.400;2023-07-31T03:26:49;14.70;99.90
48007;DHT22;33771;48.180;11.400;2023-07-31T03:29:14;14.60;99.90
48007;DHT22;33771;48.180;11.400;2023-07-31T03:31:40;14.60;99.90
48007;DHT22;33771;48.180;11.400;2023-07-31T03:34:05;14.60;99.90
48007;DHT22;33771;48.180;11.400;2023-07-31T03:36:31;14.60;99.90
48007;DHT22;33771;48.180;11.400;2023-07-31T03:38:57;14.70;99.90
48007;DHT22;33771;48.180;11.400;2023-07-31T03:41:22;14.70;99.90
48007;DHT22;33771;48.180;11.400;2023-07-31T03:43:50;14.70;99.90
48007;DHT22;33771;48.180;11.400;2023-07-31T03:46:17;14.70;99.90
48007;DHT22;33771;48.180;11.400;2023-07-31T03:48:43;14.70;99.90
48007;DHT22;33771;48.180;11.400;2023-07-31T03:51:08;14.80;99.90
48007;DHT22;33771;48.180;11.400;2023-07-31T03:53:34;14.80;99.90
48007;DHT22;33771;48.180;11.400;2023-07-31T03:55:59;14.80;99.90
48007;DHT22;33771;48.180;11.400;2023-07-31T03:58:25;14.80;99.90
48007;DHT22;33771;48.180;11.400;2023-07-31T04:00:50;14.80;99.90
48007;DHT22;33771;48.180;11.400;2023-07-31T04:03:16;14.80;99.90
48007;DHT22;33771;48.180;11.400;2023-07-31T04:05:41;14.90;99.90
48007;DHT22;33771;48.180;11.400;2023-07-31T04:08:07;14.90;99.90
48007;DHT22;33771;48.180;11.400;2023-07-31T04:10:32;14.90;99.90
48007;DHT22;33771;48.180;11.400;2023-07-31T04:12:59;14.90;99.90
48007;DHT22;33771;48.180;11.400;2023-07-31T04:15:25;14.90;99.90
48007;DHT22;33771;48.180;11.400;2023-07-31T04:17:51;14.90;99.90
48007;DHT22;33771;48.180;11.400;2023-07-31T04:20:17;14.90;99.90
48007;DHT22;33771;48.180;11.400;2023-07-31T04:22:42;14.90;99.90
48007;DHT22;33771;48.180;11.400;2023-07-31T04:25:08;14.90;99.90
48007;DHT22;33771;48.180;11.400;2023-07-31T04:27:34;14.90;99.90
48007;DHT22;33771;48.180;11.400;2023-07-31T04:29:59;14.90;99.90
48007;DHT22;33771;48.180;11.400;2023-07-31T04:32:25;14.90;99.90
48007;DHT22;33771;48.180;11.400;2023-07-31T04:34:50;14.90;99.90
48007;DHT22;33771;48.180;11.400;2023-07-31T04:37:16;14.90;99.90
48007;DHT22;33771;48.180;11.400;2023-07-31T04:39:41;14.90;99.90
48007;DHT22;33771;48.180;11.400;2023-07-31T04:42:07;14.90;99.90
48007;DHT22;33771;48.180;11.400;2023-07-31T04:44:32;14.90;99.90
48007;DHT22;33771;48.180;11.400;2023-07-31T04:46:58;14.90;99.90
48007;DHT22;33771;48.180;11.400;2023-07-31T04:49:23;14.90;99.90
48007;DHT22;33771;48.180;11.400;2023-07-31T04:51:49;14.90;99.90
48007;DHT22;33771;48.180;11.400;2023-07-31T04:54:14;14.90;99.90
48007;DHT22;33771;48.180;11.400;2023-07-31T04:56:40;14.90;99.90
48007;DHT22;33771;48.180;11.400;2023-07-31T04:59:06;14.90;99.90
48007;DHT22;33771;48.180;11.400;2023-07-31T05:01:32;14.80;99.90
48007;DHT22;33771;48.180;11.400;2023-07-31T05:03:57;14.90;99.90
48007;DHT22;33771;48.180;11.400;2023-07-31T05:06:23;14.90;99.90
48007;DHT22;33771;48.180;11.400;2023-07-31T05:08:48;14.90;99.90
48007;DHT22;33771;48.180;11.400;2023-07-31T05:11:14;14.90;99.90
48007;DHT22;33771;48.180;11.400;2023-07-31T05:13:39;15.00;99.90
48007;DHT22;33771;48.180;11.400;2023-07-31T05:16:05;15.10;99.90
48007;DHT22;33771;48.180;11.400;2023-07-31T05:18:30;15.20;99.90
48007;DHT22;33771;48.180;11.400;2023-07-31T05:20:56;15.30;99.90
48007;DHT22;33771;48.180;11.400;2023-07-31T05:23:21;15.40;99.90
48007;DHT22;33771;48.180;11.400;2023-07-31T05:25:47;15.50;99.90
48007;DHT22;33771;48.180;11.400;2023-07-31T05:28:13;15.70;99.90
48007;DHT22;33771;48.180;11.400;2023-07-31T05:30:38;15.90;99.90
48007;DHT22;33771;48.180;11.400;2023-07-31T05:33:04;16.00;99.90
48007;DHT22;33771;48.180;11.400;2023-07-31T05:35:29;16.10;99.90
48007;DHT22;33771;48.180;11.400;2023-07-31T05:37:55;16.30;99.90
48007;DHT22;33771;48.180;11.400;2023-07-31T05:40:20;16.40;99.90
48007;DHT22;33771;48.180;11.400;2023-07-31T05:42:46;16.50;99.90
48007;DHT22;33771;48.180;11.400;2023-07-31T05:45:11;16.60;99.90
48007;DHT22;33771;48.180;11.400;2023-07-31T05:47:39;16.70;99.90
48007;DHT22;33771;48.180;11.400;2023-07-31T05:50:04;16.70;99.90
48007;DHT22;33771;48.180;11.400;2023-07-31T05:52:30;16.80;99.90
48007;DHT22;33771;48.180;11.400;2023-07-31T05:54:56;16.90;99.90
48007;DHT22;33771;48.180;11.400;2023-07-31T05:57:21;16.90;99.90
48007;DHT22;33771;48.180;11.400;2023-07-31T05:59:47;17.00;99.90
48007;DHT22;33771;48.180;11.400;2023-07-31T06:02:12;17.10;99.90
48007;DHT22;33771;48.180;11.400;2023-07-31T06:04:38;17.10;99.90
48007;DHT22;33771;48.180;11.400;2023-07-31T06:07:04;17.20;99.90
48007;DHT22;33771;48.180;11.400;2023-07-31T06:09:29;17.30;99.90
48007;DHT22;33771;48.180;11.400;2023-07-31T06:11:55;17.40;99.90
48007;DHT22;33771;48.180;11.400;2023-07-31T06:14:20;17.50;99.90
48007;DHT22;33771;48.180;11.400;2023-07-31T06:16:46;17.60;99.90
48007;DHT22;33771;48.180;11.400;2023-07-31T06:19:12;17.70;99.90
48007;DHT22;33771;48.180;11.400;2023-07-31T06:21:38;17.70;99.90
48007;DHT22;33771;48.180;11.400;2023-07-31T06:24:05;17.80;99.90
48007;DHT22;33771;48.180;11.400;2023-07-31T06:26:31;17.80;99.90
48007;DHT22;33771;48.180;11.400;2023-07-31T06:28:56;17.80;99.90
48007;DHT22;33771;48.180;11.400;2023-07-31T06:31:22;17.80;99.90
48007;DHT22;33771;48.180;11.400;2023-07-31T06:33:51;17.80;99.90
48007;DHT22;33771;48.180;11.400;2023-07-31T06:36:18;17.90;99.90
48007;DHT22;33771;48.180;11.400;2023-07-31T06:38:43;17.90;99.90
48007;DHT22;33771;48.180;11.400;2023-07-31T06:41:09;18.00;99.90
48007;DHT22;33771;48.180;11.400;2023-07-31T06:43:36;18.10;99.90
48007;DHT22;33771;48.180;11.400;2023-07-31T06:46:06;18.20;99.90
48007;DHT22;33771;48.180;11.400;2023-07-31T06:48:32;18.20;99.90
48007;DHT22;33771;48.180;11.400;2023-07-31T06:50:58;18.30;99.90
48007;DHT22;33771;48.180;11.400;2023-07-31T06:53:24;18.30;99.90
48007;DHT22;33771;48.180;11.400;2023-07-31T06:55:49;18.40;99.90
48007;DHT22;33771;48.180;11.400;2023-07-31T06:58:17;18.50;99.90
48007;DHT22;33771;48.180;11.400;2023-07-31T07:00:42;18.60;99.90
48007;DHT22;33771;48.180;11.400;2023-07-31T07:03:08;18.70;99.90
48007;DHT22;33771;48.180;11.400;2023-07-31T07:05:34;18.70;99.90
48007;DHT22;33771;48.180;11.400;2023-07-31T07:08:00;18.60;99.90
48007;DHT22;33771;48.180;11.400;2023-07-31T07:10:25;18.50;99.90
48007;DHT22;33771;48.180;11.400;2023-07-31T07:12:51;18.60;99.90
48007;DHT22;33771;48.180;11.400;2023-07-31T07:15:16;18.60;99.90
48007;DHT22;33771;48.180;11.400;2023-07-31T07:17:42;18.70;99.90
48007;DHT22;33771;48.180;11.400;2023-07-31T07:20:08;18.80;99.90
48007;DHT22;33771;48.180;11.400;2023-07-31T07:22:33;18.90;99.90
48007;DHT22;33771;48.180;11.400;2023-07-31T07:24:59;19.10;99.90
48007;DHT22;33771;48.180;11.400;2023-07-31T07:27:24;19.20;99.90
48007;DHT22;33771;48.180;11.400;2023-07-31T07:29:51;19.30;99.90
48007;DHT22;33771;48.180;11.400;2023-07-31T07:32:18;19.40;99.90
48007;DHT22;33771;48.180;11.400;2023-07-31T07:34:43;19.40;99.90
48007;DHT22;33771;48.180;11.400;2023-07-31T07:37:09;19.70;99.90
48007;DHT22;33771;48.180;11.400;2023-07-31T07:39:34;19.80;99.90
48007;DHT22;33771;48.180;11.400;2023-07-31T07:42:00;19.90;99.90
48007;DHT22;33771;48.180;11.400;2023-07-31T07:44:26;20.00;99.90
48007;DHT22;33771;48.180;11.400;2023-07-31T07:46:52;20.00;99.90
48007;DHT22;33771;48.180;11.400;2023-07-31T07:49:17;20.10;99.90
48007;DHT22;33771;48.180;11.400;2023-07-31T07:51:43;20.10;99.90
48007;DHT22;33771;48.180;11.400;2023-07-31T07:54:09;20.10;99.90
48007;DHT22;33771;48.180;11.400;2023-07-31T07:56:34;20.10;99.90
48007;DHT22;33771;48.180;11.400;2023-07-31T07:59:01;20.10;99.90
48007;DHT22;33771;48.180;11.400;2023-07-31T08:01:27;20.20;99.90
48007;DHT22;33771;48.180;11.400;2023-07-31T08:03:52;20.30;99.90
48007;DHT22;33771;48.180;11.400;2023-07-31T08:06:19;20.50;99.90
48007;DHT22;33771;48.180;11.400;2023-07-31T08:08:44;20.50;99.90
48007;DHT22;33771;48.180;11.400;2023-07-31T08:11:10;20.60;99.90
48007;DHT22;33771;48.180;11.400;2023-07-31T08:13:35;20.80;99.90
48007;DHT22;33771;48.180;11.400;2023-07-31T08:16:03;20.90;99.90
48007;DHT22;33771;48.180;11.400;2023-07-31T08:18:28;21.00;99.90
48007;DHT22;33771;48.180;11.400;2023-07-31T08:20:54;21.00;99.90
48007;DHT22;33771;48.180;11.400;2023-07-31T08:23:19;21.10;99.90
48007;DHT22;33771;48.180;11.400;2023-07-31T08:25:45;21.00;99.90
48007;DHT22;33771;48.180;11.400;2023-07-31T08:28:11;21.00;99.90
48007;DHT22;33771;48.180;11.400;2023-07-31T08:30:37;20.90;99.90
48007;DHT22;33771;48.180;11.400;2023-07-31T08:33:02;20.80;99.90
48007;DHT22;33771;48.180;11.400;2023-07-31T08:35:28;20.70;99.90
48007;DHT22;33771;48.180;11.400;2023-07-31T08:37:54;20.70;99.90
48007;DHT22;33771;48.180;11.400;2023-07-31T08:40:20;20.60;99.90
48007;DHT22;33771;48.180;11.400;2023-07-31T08:42:48;20.40;99.90
48007;DHT22;33771;48.180;11.400;2023-07-31T08:45:15;20.30;99.90
48007;DHT22;33771;48.180;11.400;2023-07-31T08:47:50;20.30;99.90
48007;DHT22;33771;48.180;11.400;2023-07-31T08:50:17;20.20;99.90
48007;DHT22;33771;48.180;11.400;2023-07-31T08:52:43;20.10;99.90
48007;DHT22;33771;48.180;11.400;2023-07-31T08:55:09;20.00;99.90
48007;DHT22;33771;48.180;11.400;2023-07-31T08:57:36;20.00;99.90
48007;DHT22;33771;48.180;11.400;2023-07-31T09:00:04;20.00;99.90
48007;DHT22;33771;48.180;11.400;2023-07-31T09:02:42;20.10;99.90
48007;DHT22;33771;48.180;11.400;2023-07-31T09:05:11;20.20;99.90
48007;DHT22;33771;48.180;11.400;2023-07-31T09:07:37;20.40;99.90
48007;DHT22;33771;48.180;11.400;2023-07-31T09:10:04;20.60;99.90
48007;DHT22;33771;48.180;11.400;2023-07-31T09:12:30;20.80;99.90
48007;DHT22;33771;48.180;11.400;2023-07-31T09:14:57;20.90;99.90
48007;DHT22;33771;48.180;11.400;2023-07-31T09:17:33;21.00;99.90
48007;DHT22;33771;48.180;11.400;2023-07-31T09:20:19;21.10;99.90
48007;DHT22;33771;48.180;11.400;2023-07-31T09:22:48;21.20;99.90
48007;DHT22;33771;48.180;11.400;2023-07-31T09:25:18;21.20;99.90
48007;DHT22;33771;48.180;11.400;2023-07-31T09:30:19;21.40;99.90
48007;DHT22;33771;48.180;11.400;2023-07-31T09:32:46;21.60;99.90
48007;DHT22;33771;48.180;11.400;2023-07-31T09:37:52;21.60;99.90
48007;DHT22;33771;48.180;11.400;2023-07-31T09:40:28;21.70;99.90
48007;DHT22;33771;48.180;11.400;2023-07-31T09:42:56;21.90;99.90
48007;DHT22;33771;48.180;11.400;2023-07-31T09:45:23;22.10;99.90
48007;DHT22;33771;48.180;11.400;2023-07-31T09:47:48;22.20;99.90
48007;DHT22;33771;48.180;11.400;2023-07-31T09:50:14;22.40;99.90
48007;DHT22;33771;48.180;11.400;2023-07-31T09:52:41;22.80;99.90
48007;DHT22;33771;48.180;11.400;2023-07-31T09:55:08;22.80;99.90
48007;DHT22;33771;48.180;11.400;2023-07-31T09:57:34;22.80;99.90
48007;DHT22;33771;48.180;11.400;2023-07-31T10:00:00;23.00;99.90
48007;DHT22;33771;48.180;11.400;2023-07-31T10:02:27;23.10;99.90
48007;DHT22;33771;48.180;11.400;2023-07-31T10:04:57;23.10;99.90
48007;DHT22;33771;48.180;11.400;2023-07-31T10:07:25;23.10;99.90
48007;DHT22;33771;48.180;11.400;2023-07-31T10:09:51;23.10;99.90
48007;DHT22;33771;48.180;11.400;2023-07-31T10:12:19;23.50;99.90
48007;DHT22;33771;48.180;11.400;2023-07-31T10:14:46;23.70;99.90
48007;DHT22;33771;48.180;11.400;2023-07-31T10:17:13;24.00;99.90
48007;DHT22;33771;48.180;11.400;2023-07-31T10:19:39;24.00;99.90
48007;DHT22;33771;48.180;11.400;2023-07-31T10:22:05;24.10;99.90
48007;DHT22;33771;48.180;11.400;2023-07-31T10:24:32;24.00;99.90
48007;DHT22;33771;48.180;11.400;2023-07-31T10:27:00;24.00;99.90
48007;DHT22;33771;48.180;11.400;2023-07-31T10:29:27;23.90;99.90
48007;DHT22;33771;48.180;11.400;2023-07-31T10:31:57;24.00;99.90
48007;DHT22;33771;48.180;11.400;2023-07-31T10:34:24;24.40;99.90
48007;DHT22;33771;48.180;11.400;2023-07-31T10:36:49;24.20;99.90
48007;DHT22;33771;48.180;11.400;2023-07-31T10:39:35;24.10;99.90
48007;DHT22;33771;48.180;11.400;2023-07-31T10:42:12;24.20;99.90
48007;DHT22;33771;48.180;11.400;2023-07-31T10:44:38;24.30;99.90
48007;DHT22;33771;48.180;11.400;2023-07-31T10:47:08;24.20;99.90
48007;DHT22;33771;48.180;11.400;2023-07-31T10:49:34;24.30;99.90
48007;DHT22;33771;48.180;11.400;2023-07-31T10:51:59;24.20;99.90
48007;DHT22;33771;48.180;11.400;2023-07-31T10:54:28;24.10;99.90
48007;DHT22;33771;48.180;11.400;2023-07-31T10:56:53;24.10;99.90
48007;DHT22;33771;48.180;11.400;2023-07-31T10:59:19;24.30;99.90
48007;DHT22;33771;48.180;11.400;2023-07-31T11:01:56;24.60;99.90
48007;DHT22;33771;48.180;11.400;2023-07-31T11:04:27;24.70;99.90
48007;DHT22;33771;48.180;11.400;2023-07-31T11:07:01;24.90;99.90
48007;DHT22;33771;48.180;11.400;2023-07-31T11:09:29;24.80;99.90
48007;DHT22;33771;48.180;11.400;2023-07-31T11:11:56;25.10;99.90
48007;DHT22;33771;48.180;11.400;2023-07-31T11:14:22;25.40;99.90
48007;DHT22;33771;48.180;11.400;2023-07-31T11:16:50;25.60;99.90
48007;DHT22;33771;48.180;11.400;2023-07-31T11:19:24;25.50;99.90
48007;DHT22;33771;48.180;11.400;2023-07-31T11:21:52;25.40;99.90
48007;DHT22;33771;48.180;11.400;2023-07-31T11:24:18;25.30;99.90
48007;DHT22;33771;48.180;11.400;2023-07-31T11:26:51;25.40;99.90
48007;DHT22;33771;48.180;11.400;2023-07-31T11:29:17;25.40;99.90
48007;DHT22;33771;48.180;11.400;2023-07-31T11:31:44;25.30;99.90
48007;DHT22;33771;48.180;11.400;2023-07-31T11:34:10;25.10;99.90
48007;DHT22;33771;48.180;11.400;2023-07-31T11:36:35;25.10;99.90
48007;DHT22;33771;48.180;11.400;2023-07-31T11:39:05;25.60;99.90
48007;DHT22;33771;48.180;11.400;2023-07-31T11:41:32;25.80;99.90
48007;DHT22;33771;48.180;11.400;2023-07-31T11:44:00;25.80;99.90
48007;DHT22;33771;48.180;11.400;2023-07-31T11:46:27;26.00;99.90
48007;DHT22;33771;48.180;11.400;2023-07-31T11:48:59;26.10;99.90
48007;DHT22;33771;48.180;11.400;2023-07-31T11:51:25;26.30;99.90
48007;DHT22;33771;48.180;11.400;2023-07-31T11:53:52;26.50;99.90
48007;DHT22;33771;48.180;11.400;2023-07-31T11:56:21;26.60;99.90
48007;DHT22;33771;48.180;11.400;2023-07-31T11:58:50;26.50;99.90
48007;DHT22;33771;48.180;11.400;2023-07-31T12:01:18;26.60;99.90
48007;DHT22;33771;48.180;11.400;2023-07-31T12:03:46;26.70;99.90
48007;DHT22;33771;48.180;11.400;2023-07-31T12:06:12;27.10;99.90
48007;DHT22;33771;48.180;11.400;2023-07-31T12:08:37;26.70;99.90
48007;DHT22;33771;48.180;11.400;2023-07-31T12:11:08;26.50;99.90
48007;DHT22;33771;48.180;11.400;2023-07-31T12:13:35;26.20;99.90
48007;DHT22;33771;48.180;11.400;2023-07-31T12:16:02;26.20;99.90
48007;DHT22;33771;48.180;11.400;2023-07-31T12:18:29;26.40;99.90
48007;DHT22;33771;48.180;11.400;2023-07-31T12:23:25;26.70;99.90
48007;DHT22;33771;48.180;11.400;2023-07-31T12:28:40;26.20;99.90
48007;DHT22;33771;48.180;11.400;2023-07-31T12:31:08;26.10;99.90
48007;DHT22;33771;48.180;11.400;2023-07-31T12:33:35;25.80;99.90
48007;DHT22;33771;48.180;11.400;2023-07-31T12:36:03;25.80;99.90
48007;DHT22;33771;48.180;11.400;2023-07-31T12:38:29;25.90;99.90
48007;DHT22;33771;48.180;11.400;2023-07-31T12:40:55;26.10;99.90
48007;DHT22;33771;48.180;11.400;2023-07-31T12:43:20;26.20;99.90
48007;DHT22;33771;48.180;11.400;2023-07-31T12:45:46;26.10;99.90
48007;DHT22;33771;48.180;11.400;2023-07-31T12:48:12;26.10;99.90
48007;DHT22;33771;48.180;11.400;2023-07-31T12:50:38;26.10;99.90
48007;DHT22;33771;48.180;11.400;2023-07-31T12:53:04;26.40;99.90
48007;DHT22;33771;48.180;11.400;2023-07-31T12:55:30;26.40;99.90
48007;DHT22;33771;48.180;11.400;2023-07-31T12:57:56;26.30;99.90
48007;DHT22;33771;48.180;11.400;2023-07-31T13:00:22;26.20;99.90
48007;DHT22;33771;48.180;11.400;2023-07-31T13:02:47;26.20;99.90
48007;DHT22;33771;48.180;11.400;2023-07-31T13:05:13;26.30;99.90
48007;DHT22;33771;48.180;11.400;2023-07-31T13:07:39;26.60;99.90
48007;DHT22;33771;48.180;11.400;2023-07-31T13:10:06;27.00;99.90
48007;DHT22;33771;48.180;11.400;2023-07-31T13:12:32;27.10;99.90
48007;DHT22;33771;48.180;11.400;2023-07-31T13:14:57;27.30;99.90
48007;DHT22;33771;48.180;11.400;2023-07-31T13:17:23;27.50;99.90
48007;DHT22;33771;48.180;11.400;2023-07-31T13:19:48;27.10;99.90
48007;DHT22;33771;48.180;11.400;2023-07-31T13:22:14;26.90;99.90
48007;DHT22;33771;48.180;11.400;2023-07-31T13:24:39;26.70;99.90
48007;DHT22;33771;48.180;11.400;2023-07-31T13:27:05;26.60;99.90
48007;DHT22;33771;48.180;11.400;2023-07-31T13:29:31;26.40;99.90
48007;DHT22;33771;48.180;11.400;2023-07-31T13:31:57;26.20;99.90
48007;DHT22;33771;48.180;11.400;2023-07-31T13:34:23;26.00;99.90
48007;DHT22;33771;48.180;11.400;2023-07-31T13:36:48;25.70;99.90
48007;DHT22;33771;48.180;11.400;2023-07-31T13:39:14;25.40;99.90
48007;DHT22;33771;48.180;11.400;2023-07-31T13:41:39;25.30;99.90
48007;DHT22;33771;48.180;11.400;2023-07-31T13:44:05;25.20;99.90
48007;DHT22;33771;48.180;11.400;2023-07-31T13:46:30;25.30;99.90
48007;DHT22;33771;48.180;11.400;2023-07-31T13:48:58;25.40;99.90
48007;DHT22;33771;48.180;11.400;2023-07-31T13:51:25;25.30;99.90
48007;DHT22;33771;48.180;11.400;2023-07-31T13:53:50;25.10;99.90
48007;DHT22;33771;48.180;11.400;2023-07-31T13:56:16;24.90;99.90
48007;DHT22;33771;48.180;11.400;2023-07-31T13:58:41;24.80;99.90
48007;DHT22;33771;48.180;11.400;2023-07-31T14:01:07;24.70;99.90
48007;DHT22;33771;48.180;11.400;2023-07-31T14:03:32;24.70;99.90
48007;DHT22;33771;48.180;11.400;2023-07-31T14:05:58;24.80;99.90
48007;DHT22;33771;48.180;11.400;2023-07-31T14:08:24;24.80;99.90
48007;DHT22;33771;48.180;11.400;2023-07-31T14:10:50;24.90;99.90
48007;DHT22;33771;48.180;11.400;2023-07-31T14:13:15;24.90;99.90
48007;DHT22;33771;48.180;11.400;2023-07-31T14:15:44;24.90;99.90
48007;DHT22;33771;48.180;11.400;2023-07-31T14:18:09;24.90;99.90
48007;DHT22;33771;48.180;11.400;2023-07-31T14:20:35;24.80;99.90
48007;DHT22;33771;48.180;11.400;2023-07-31T14:23:02;24.70;99.90
48007;DHT22;33771;48.180;11.400;2023-07-31T14:25:27;24.70;99.90
48007;DHT22;33771;48.180;11.400;2023-07-31T14:27:53;24.70;99.90
48007;DHT22;33771;48.180;11.400;2023-07-31T14:30:19;24.70;99.90
48007;DHT22;33771;48.180;11.400;2023-07-31T14:32:44;24.70;99.90
48007;DHT22;33771;48.180;11.400;2023-07-31T14:35:10;24.70;99.90
48007;DHT22;33771;48.180;11.400;2023-07-31T14:37:40;24.70;99.90
48007;DHT22;33771;48.180;11.400;2023-07-31T14:40:08;24.70;99.90
48007;DHT22;33771;48.180;11.400;2023-07-31T14:42:34;24.60;99.90
48007;DHT22;33771;48.180;11.400;2023-07-31T14:45:00;24.70;99.90
48007;DHT22;33771;48.180;11.400;2023-07-31T14:47:26;24.70;99.90
48007;DHT22;33771;48.180;11.400;2023-07-31T14:49:51;24.80;99.90
48007;DHT22;33771;48.180;11.400;2023-07-31T14:52:17;24.90;99.90
48007;DHT22;33771;48.180;11.400;2023-07-31T14:54:42;24.90;99.90
48007;DHT22;33771;48.180;11.400;2023-07-31T14:57:08;24.90;99.90
48007;DHT22;33771;48.180;11.400;2023-07-31T14:59:34;24.80;99.90
48007;DHT22;33771;48.180;11.400;2023-07-31T15:01:59;24.60;99.90
48007;DHT22;33771;48.180;11.400;2023-07-31T15:04:25;24.40;99.90
48007;DHT22;33771;48.180;11.400;2023-07-31T15:06:52;24.40;99.90
48007;DHT22;33771;48.180;11.400;2023-07-31T15:09:17;24.30;99.90
48007;DHT22;33771;48.180;11.400;2023-07-31T15:11:43;24.20;99.90
48007;DHT22;33771;48.180;11.400;2023-07-31T15:14:08;24.20;99.90
48007;DHT22;33771;48.180;11.400;2023-07-31T15:16:34;24.20;99.90
48007;DHT22;33771;48.180;11.400;2023-07-31T15:18:59;24.10;99.90
48007;DHT22;33771;48.180;11.400;2023-07-31T15:21:25;24.00;99.90
48007;DHT22;33771;48.180;11.400;2023-07-31T15:23:51;23.90;99.90
48007;DHT22;33771;48.180;11.400;2023-07-31T15:26:16;23.80;99.90